Stanford, Montana
Current Conditions -  °F | °C
As of 2:54 PM on Monday 24 Nov 2014 (Local Time) from KLWT Reporting Station
Overcast Overcast  
Wind Chill: 31°   Ceiling: 6500
Heat Index: 41°   Visibility: 10mi
Dew Point: 17°   Wind: 22mph
Humidity: 38%   Direction: 280°W
Pressure: 30.08"   Gusts: 30mph
Location:  47.15°N, 110.22°W
Report Text: KLWT 242154Z AUTO 28019G26KT 10SM BKN065 BKN080 OVC090 05/M08 A3008 RMK AO2 PK WND 27026/2145 SLP202 T00501083
Loading
Personal Weather Stations






























Interactive Weather Map New forecast layout! Learn more

10-Day Weather Forecast

Advertisements
Track Severe Weather on mobile